Tuesday, July 22, 2014
19:37 UTC
  |  Log In   |  Register Free
Airport Search:

Clinton-Sampson County Airport
(KCTZ)

Clinton-Sampson County Airport Diagram
No Airport Diagram Available

FAA data valid effective May 29, 2014 until July 24, 2014 (unless otherwise noted).

 
 
 
 
 
 
 
 
 
 
 
 
 
 

Current Aviation Weather for Clinton-Sampson County Airport (KCTZ)

The most recent METAR observation for KCTZ was updated at: 1830 UTC
METAR Summary (Translated METAR)
KCTZ
221830Z AUTO 10003KT 10SM SCT030 SCT037 SCT048 31/24 A3010 RMK AO2 T03090235
KDPL
(18.9 nm NE from KCTZ)
221835Z AUTO 03004KT 7SM SCT027 BKN032 BKN044 28/22 A3011 RMK AO2 T02830224
TAF
No TAF information found within 50 nm of KCTZ
  Airport Weather Conditions for KCTZ

 Current Weather at CTZ
88° F
Partly Cloudy
East winds at 3.5 mph
CTZ NOAA Radar

Pressure: 30.10 in
Humidity: 65%
Wind: East at 3.5 MPH (3 KT)
Dew Point: 74.3°F
Visibility: 10.00 mi


Airport Weather Forecast for KCTZ

Translated METAR and TAF for KCTZ
Translated METAR for KCTZ (1930 UTC 22 July 2014)
found at http://aviationweather.gov/adds/metars/
 
METAR text: KCTZ 221910Z AUTO 00000KT 10SM SCT034 31/23 A3009 RMK AO2 T03100234
Conditions at: KCTZ (CLINTON , NC, US) observed 1910 UTC 22 July 2014
Temperature: 31.0°C (88°F)
Dewpoint: 23.4°C (74°F) [RH = 64%]
Pressure (altimeter): 30.09 inches Hg (1019.0 mb)
Winds: calm
Visibility: 10 or more miles (16+ km)
Ceiling: at least 12,000 feet AGL
Clouds: scattered clouds at 3400 feet AGL
Weather: automated observation with no human augmentation;
there may or may not be significant weather present at this time
Translated TAF for KCTZ

There is no translated TAF available for this airport

Find All Airport Services Find A Hotel Find A Rental Car Find A Golf Course Find A Restaurant $100 Hamburger



FBO's on the Field
FBO Company Facility Photos Services Transportation Aviation Fuel Prices: Prices include tax
Catering Weather Repair Courtesy Rental Type 100LL JetA JetA+ MOGAS 8087
 
Clinton Flying Service

This FBO has not yet been rated
FS:Shell
Last Updated: Jul-16
Login to update fuel prices
SS:
Contact Clinton Flying ServiceMore FBO Information
 
Add another FBO Facility Photos Catering Weather Repair Courtesy Rental Type 100LL JetA JetA+ MOGAS 8087
Services Transportation Aviation Fuel Prices: Prices include tax


GlobalAir.com Airport Resource Center model-print
model-print
model-print
model-print